sensor_id;sensor_type;location;lat;lon;timestamp;temperature;humidity
3602;DHT22;1815;50.950;6.920;2022-07-21T00:01:03;22.10;99.90
3602;DHT22;1815;50.950;6.920;2022-07-21T00:03:29;22.10;99.90
3602;DHT22;1815;50.950;6.920;2022-07-21T00:05:54;22.10;99.90
3602;DHT22;1815;50.950;6.920;2022-07-21T00:08:20;22.10;99.90
3602;DHT22;1815;50.950;6.920;2022-07-21T00:10:46;22.00;99.90
3602;DHT22;1815;50.950;6.920;2022-07-21T00:13:12;22.00;99.90
3602;DHT22;1815;50.950;6.920;2022-07-21T00:15:39;22.00;99.90
3602;DHT22;1815;50.950;6.920;2022-07-21T00:18:05;22.00;99.90
3602;DHT22;1815;50.950;6.920;2022-07-21T00:20:31;21.90;99.90
3602;DHT22;1815;50.950;6.920;2022-07-21T00:22:57;21.80;99.90
3602;DHT22;1815;50.950;6.920;2022-07-21T00:25:23;21.90;99.90
3602;DHT22;1815;50.950;6.920;2022-07-21T00:27:48;21.80;99.90
3602;DHT22;1815;50.950;6.920;2022-07-21T00:30:15;21.80;99.90
3602;DHT22;1815;50.950;6.920;2022-07-21T00:32:41;21.70;99.90
3602;DHT22;1815;50.950;6.920;2022-07-21T00:35:09;21.70;99.90
3602;DHT22;1815;50.950;6.920;2022-07-21T00:37:35;21.70;99.90
3602;DHT22;1815;50.950;6.920;2022-07-21T00:40:02;21.60;99.90
3602;DHT22;1815;50.950;6.920;2022-07-21T00:42:30;21.60;99.90
3602;DHT22;1815;50.950;6.920;2022-07-21T00:44:57;21.60;99.90
3602;DHT22;1815;50.950;6.920;2022-07-21T00:47:27;21.50;99.90
3602;DHT22;1815;50.950;6.920;2022-07-21T00:49:55;21.50;99.90
3602;DHT22;1815;50.950;6.920;2022-07-21T00:52:22;21.50;99.90
3602;DHT22;1815;50.950;6.920;2022-07-21T00:54:48;21.50;99.90
3602;DHT22;1815;50.950;6.920;2022-07-21T00:57:14;21.50;99.90
3602;DHT22;1815;50.950;6.920;2022-07-21T00:59:42;21.50;99.90
3602;DHT22;1815;50.950;6.920;2022-07-21T01:02:09;21.40;99.90
3602;DHT22;1815;50.950;6.920;2022-07-21T01:04:35;21.40;99.90
3602;DHT22;1815;50.950;6.920;2022-07-21T01:07:03;21.40;99.90
3602;DHT22;1815;50.950;6.920;2022-07-21T01:09:30;21.40;99.90
3602;DHT22;1815;50.950;6.920;2022-07-21T01:11:57;21.40;99.90
3602;DHT22;1815;50.950;6.920;2022-07-21T01:14:23;21.30;99.90
3602;DHT22;1815;50.950;6.920;2022-07-21T01:16:50;21.30;99.90
3602;DHT22;1815;50.950;6.920;2022-07-21T01:19:16;21.30;99.90
3602;DHT22;1815;50.950;6.920;2022-07-21T01:21:43;21.30;99.90
3602;DHT22;1815;50.950;6.920;2022-07-21T01:24:10;21.30;99.90
3602;DHT22;1815;50.950;6.920;2022-07-21T01:26:44;21.20;99.90
3602;DHT22;1815;50.950;6.920;2022-07-21T01:29:10;21.20;99.90
3602;DHT22;1815;50.950;6.920;2022-07-21T01:31:38;21.10;99.90
3602;DHT22;1815;50.950;6.920;2022-07-21T01:34:04;21.10;99.90
3602;DHT22;1815;50.950;6.920;2022-07-21T01:36:30;21.10;99.90
3602;DHT22;1815;50.950;6.920;2022-07-21T01:38:56;21.10;99.90
3602;DHT22;1815;50.950;6.920;2022-07-21T01:41:41;21.00;99.90
3602;DHT22;1815;50.950;6.920;2022-07-21T01:44:10;20.90;99.90
3602;DHT22;1815;50.950;6.920;2022-07-21T01:46:41;20.90;99.90
3602;DHT22;1815;50.950;6.920;2022-07-21T01:49:10;20.80;99.90
3602;DHT22;1815;50.950;6.920;2022-07-21T01:51:36;20.80;99.90
3602;DHT22;1815;50.950;6.920;2022-07-21T01:54:03;20.80;99.90
3602;DHT22;1815;50.950;6.920;2022-07-21T01:56:29;20.80;99.90
3602;DHT22;1815;50.950;6.920;2022-07-21T01:58:56;20.80;99.90
3602;DHT22;1815;50.950;6.920;2022-07-21T02:01:24;20.80;99.90
3602;DHT22;1815;50.950;6.920;2022-07-21T02:04:01;20.80;99.90
3602;DHT22;1815;50.950;6.920;2022-07-21T02:06:28;20.80;99.90
3602;DHT22;1815;50.950;6.920;2022-07-21T02:08:55;20.80;99.90
3602;DHT22;1815;50.950;6.920;2022-07-21T02:11:21;20.70;99.90
3602;DHT22;1815;50.950;6.920;2022-07-21T02:13:48;20.70;99.90
3602;DHT22;1815;50.950;6.920;2022-07-21T02:16:14;20.70;99.90
3602;DHT22;1815;50.950;6.920;2022-07-21T02:18:41;20.70;99.90
3602;DHT22;1815;50.950;6.920;2022-07-21T02:21:07;20.70;99.90
3602;DHT22;1815;50.950;6.920;2022-07-21T02:23:33;20.70;99.90
3602;DHT22;1815;50.950;6.920;2022-07-21T02:26:00;20.70;99.90
3602;DHT22;1815;50.950;6.920;2022-07-21T02:28:26;20.70;99.90
3602;DHT22;1815;50.950;6.920;2022-07-21T02:30:54;20.60;99.90
3602;DHT22;1815;50.950;6.920;2022-07-21T02:33:20;20.60;99.90
3602;DHT22;1815;50.950;6.920;2022-07-21T02:35:46;20.60;99.90
3602;DHT22;1815;50.950;6.920;2022-07-21T02:38:12;20.60;99.90
3602;DHT22;1815;50.950;6.920;2022-07-21T02:40:39;20.60;99.90
3602;DHT22;1815;50.950;6.920;2022-07-21T02:43:05;20.70;99.90
3602;DHT22;1815;50.950;6.920;2022-07-21T02:45:31;20.70;99.90
3602;DHT22;1815;50.950;6.920;2022-07-21T02:48:03;20.70;99.90
3602;DHT22;1815;50.950;6.920;2022-07-21T02:50:31;20.70;99.90
3602;DHT22;1815;50.950;6.920;2022-07-21T02:52:59;20.60;99.90
3602;DHT22;1815;50.950;6.920;2022-07-21T02:55:27;20.70;99.90
3602;DHT22;1815;50.950;6.920;2022-07-21T02:58:19;20.70;99.90
3602;DHT22;1815;50.950;6.920;2022-07-21T03:00:51;20.70;99.90
3602;DHT22;1815;50.950;6.920;2022-07-21T03:03:17;20.70;99.90
3602;DHT22;1815;50.950;6.920;2022-07-21T03:05:43;20.70;99.90
3602;DHT22;1815;50.950;6.920;2022-07-21T03:08:10;20.70;99.90
3602;DHT22;1815;50.950;6.920;2022-07-21T03:10:37;20.70;99.90
3602;DHT22;1815;50.950;6.920;2022-07-21T03:13:04;20.80;99.90
3602;DHT22;1815;50.950;6.920;2022-07-21T03:15:30;20.80;99.90
3602;DHT22;1815;50.950;6.920;2022-07-21T03:17:56;20.80;99.90
3602;DHT22;1815;50.950;6.920;2022-07-21T03:20:27;20.80;99.90
3602;DHT22;1815;50.950;6.920;2022-07-21T03:22:54;20.80;99.90
3602;DHT22;1815;50.950;6.920;2022-07-21T03:25:20;20.70;99.90
3602;DHT22;1815;50.950;6.920;2022-07-21T03:27:46;20.60;99.90
3602;DHT22;1815;50.950;6.920;2022-07-21T03:30:13;20.60;99.90
3602;DHT22;1815;50.950;6.920;2022-07-21T03:32:39;20.60;99.90
3602;DHT22;1815;50.950;6.920;2022-07-21T03:35:06;20.60;99.90
3602;DHT22;1815;50.950;6.920;2022-07-21T03:37:34;20.60;99.90
3602;DHT22;1815;50.950;6.920;2022-07-21T03:40:05;20.60;99.90
3602;DHT22;1815;50.950;6.920;2022-07-21T03:42:31;20.60;99.90
3602;DHT22;1815;50.950;6.920;2022-07-21T03:44:57;20.50;99.90
3602;DHT22;1815;50.950;6.920;2022-07-21T03:47:22;20.60;99.90
3602;DHT22;1815;50.950;6.920;2022-07-21T03:49:48;20.50;99.90
3602;DHT22;1815;50.950;6.920;2022-07-21T03:52:14;20.50;99.90
3602;DHT22;1815;50.950;6.920;2022-07-21T03:54:40;20.50;99.90
3602;DHT22;1815;50.950;6.920;2022-07-21T03:57:05;20.50;99.90
3602;DHT22;1815;50.950;6.920;2022-07-21T03:59:31;20.50;99.90
3602;DHT22;1815;50.950;6.920;2022-07-21T04:01:57;20.40;99.90
3602;DHT22;1815;50.950;6.920;2022-07-21T04:04:22;20.40;99.90
3602;DHT22;1815;50.950;6.920;2022-07-21T04:06:48;20.40;99.90
3602;DHT22;1815;50.950;6.920;2022-07-21T04:09:14;20.30;99.90
3602;DHT22;1815;50.950;6.920;2022-07-21T04:11:40;20.40;99.90
3602;DHT22;1815;50.950;6.920;2022-07-21T04:14:05;20.40;99.90
3602;DHT22;1815;50.950;6.920;2022-07-21T04:16:31;20.40;99.90
3602;DHT22;1815;50.950;6.920;2022-07-21T04:18:57;20.40;99.90
3602;DHT22;1815;50.950;6.920;2022-07-21T04:21:23;20.40;99.90
3602;DHT22;1815;50.950;6.920;2022-07-21T04:23:49;20.50;99.90
3602;DHT22;1815;50.950;6.920;2022-07-21T04:26:15;20.50;99.90
3602;DHT22;1815;50.950;6.920;2022-07-21T04:28:40;20.60;99.90
3602;DHT22;1815;50.950;6.920;2022-07-21T04:31:06;20.60;99.90
3602;DHT22;1815;50.950;6.920;2022-07-21T04:33:32;20.70;99.90
3602;DHT22;1815;50.950;6.920;2022-07-21T04:35:58;20.70;99.90
3602;DHT22;1815;50.950;6.920;2022-07-21T04:38:23;20.80;99.90
3602;DHT22;1815;50.950;6.920;2022-07-21T04:40:49;20.90;99.90
3602;DHT22;1815;50.950;6.920;2022-07-21T04:43:15;21.00;99.90
3602;DHT22;1815;50.950;6.920;2022-07-21T04:45:41;21.00;99.90
3602;DHT22;1815;50.950;6.920;2022-07-21T04:48:06;21.10;99.90
3602;DHT22;1815;50.950;6.920;2022-07-21T04:50:32;21.10;99.90
3602;DHT22;1815;50.950;6.920;2022-07-21T04:52:58;21.20;99.90
3602;DHT22;1815;50.950;6.920;2022-07-21T04:55:25;21.30;99.90
3602;DHT22;1815;50.950;6.920;2022-07-21T04:57:52;21.30;99.90
3602;DHT22;1815;50.950;6.920;2022-07-21T05:00:20;21.30;99.90
3602;DHT22;1815;50.950;6.920;2022-07-21T05:02:46;21.40;99.90
3602;DHT22;1815;50.950;6.920;2022-07-21T05:05:12;21.40;99.90
3602;DHT22;1815;50.950;6.920;2022-07-21T05:07:39;21.50;99.90
3602;DHT22;1815;50.950;6.920;2022-07-21T05:10:10;21.50;99.90
3602;DHT22;1815;50.950;6.920;2022-07-21T05:12:36;21.60;99.90
3602;DHT22;1815;50.950;6.920;2022-07-21T05:15:04;21.60;99.90
3602;DHT22;1815;50.950;6.920;2022-07-21T05:17:30;21.70;99.90
3602;DHT22;1815;50.950;6.920;2022-07-21T05:19:56;21.70;99.90
3602;DHT22;1815;50.950;6.920;2022-07-21T05:22:24;21.70;99.90
3602;DHT22;1815;50.950;6.920;2022-07-21T05:24:52;21.80;99.90
3602;DHT22;1815;50.950;6.920;2022-07-21T05:27:18;21.70;99.90
3602;DHT22;1815;50.950;6.920;2022-07-21T05:29:44;21.80;99.90
3602;DHT22;1815;50.950;6.920;2022-07-21T05:32:10;21.70;99.90
3602;DHT22;1815;50.950;6.920;2022-07-21T05:34:36;21.70;99.90
3602;DHT22;1815;50.950;6.920;2022-07-21T05:37:02;21.70;99.90
3602;DHT22;1815;50.950;6.920;2022-07-21T05:39:27;21.70;99.90
3602;DHT22;1815;50.950;6.920;2022-07-21T05:41:54;21.70;99.90
3602;DHT22;1815;50.950;6.920;2022-07-21T05:44:20;21.70;99.90
3602;DHT22;1815;50.950;6.920;2022-07-21T05:46:45;21.60;99.90
3602;DHT22;1815;50.950;6.920;2022-07-21T05:49:11;21.60;99.90
3602;DHT22;1815;50.950;6.920;2022-07-21T05:51:37;21.60;99.90
3602;DHT22;1815;50.950;6.920;2022-07-21T05:54:03;21.50;99.90
3602;DHT22;1815;50.950;6.920;2022-07-21T05:56:28;21.50;99.90
3602;DHT22;1815;50.950;6.920;2022-07-21T05:58:54;21.50;99.90
3602;DHT22;1815;50.950;6.920;2022-07-21T06:01:20;21.60;99.90
3602;DHT22;1815;50.950;6.920;2022-07-21T06:03:48;21.50;99.90
3602;DHT22;1815;50.950;6.920;2022-07-21T06:06:15;21.60;99.90
3602;DHT22;1815;50.950;6.920;2022-07-21T06:08:43;21.50;99.90
3602;DHT22;1815;50.950;6.920;2022-07-21T06:11:11;21.50;99.90
3602;DHT22;1815;50.950;6.920;2022-07-21T06:13:38;21.50;99.90
3602;DHT22;1815;50.950;6.920;2022-07-21T06:16:04;21.60;99.90
3602;DHT22;1815;50.950;6.920;2022-07-21T06:18:30;21.50;99.90
3602;DHT22;1815;50.950;6.920;2022-07-21T06:20:56;21.50;99.90
3602;DHT22;1815;50.950;6.920;2022-07-21T06:23:22;21.50;99.90
3602;DHT22;1815;50.950;6.920;2022-07-21T06:25:49;21.50;99.90
3602;DHT22;1815;50.950;6.920;2022-07-21T06:28:15;21.50;99.90
3602;DHT22;1815;50.950;6.920;2022-07-21T06:30:41;21.50;99.90
3602;DHT22;1815;50.950;6.920;2022-07-21T06:33:07;21.50;99.90
3602;DHT22;1815;50.950;6.920;2022-07-21T06:35:33;21.50;99.90
3602;DHT22;1815;50.950;6.920;2022-07-21T06:37:59;21.60;99.90
3602;DHT22;1815;50.950;6.920;2022-07-21T06:40:24;21.70;99.90
3602;DHT22;1815;50.950;6.920;2022-07-21T06:42:50;21.90;99.90
3602;DHT22;1815;50.950;6.920;2022-07-21T06:45:16;22.20;99.90
3602;DHT22;1815;50.950;6.920;2022-07-21T06:47:42;22.90;99.90
3602;DHT22;1815;50.950;6.920;2022-07-21T06:50:08;23.70;99.90
3602;DHT22;1815;50.950;6.920;2022-07-21T06:52:35;24.60;99.90
3602;DHT22;1815;50.950;6.920;2022-07-21T06:55:01;25.50;99.90
3602;DHT22;1815;50.950;6.920;2022-07-21T06:57:27;26.40;99.90
3602;DHT22;1815;50.950;6.920;2022-07-21T06:59:53;27.10;99.90
3602;DHT22;1815;50.950;6.920;2022-07-21T07:02:18;27.80;99.90
3602;DHT22;1815;50.950;6.920;2022-07-21T07:04:44;28.60;99.90
3602;DHT22;1815;50.950;6.920;2022-07-21T07:07:10;29.40;99.90
3602;DHT22;1815;50.950;6.920;2022-07-21T07:09:36;30.30;99.90
3602;DHT22;1815;50.950;6.920;2022-07-21T07:12:02;31.00;99.90
3602;DHT22;1815;50.950;6.920;2022-07-21T07:14:35;31.60;99.90
3602;DHT22;1815;50.950;6.920;2022-07-21T07:17:02;32.10;99.90
3602;DHT22;1815;50.950;6.920;2022-07-21T07:19:29;32.70;99.90
3602;DHT22;1815;50.950;6.920;2022-07-21T07:21:55;33.20;99.90
3602;DHT22;1815;50.950;6.920;2022-07-21T07:24:20;33.30;99.90
3602;DHT22;1815;50.950;6.920;2022-07-21T07:26:46;33.40;99.90
3602;DHT22;1815;50.950;6.920;2022-07-21T07:29:13;33.60;99.90
3602;DHT22;1815;50.950;6.920;2022-07-21T07:31:38;33.90;99.90
3602;DHT22;1815;50.950;6.920;2022-07-21T07:34:05;34.30;99.90
3602;DHT22;1815;50.950;6.920;2022-07-21T07:36:32;34.50;99.90
3602;DHT22;1815;50.950;6.920;2022-07-21T07:38:58;34.40;99.90
3602;DHT22;1815;50.950;6.920;2022-07-21T07:41:25;34.00;99.90
3602;DHT22;1815;50.950;6.920;2022-07-21T07:43:52;33.50;99.90
3602;DHT22;1815;50.950;6.920;2022-07-21T07:46:19;33.30;99.90
3602;DHT22;1815;50.950;6.920;2022-07-21T07:48:45;33.50;99.90
3602;DHT22;1815;50.950;6.920;2022-07-21T07:51:13;34.00;99.90
3602;DHT22;1815;50.950;6.920;2022-07-21T07:53:40;34.30;99.90
3602;DHT22;1815;50.950;6.920;2022-07-21T07:56:06;34.50;99.90
3602;DHT22;1815;50.950;6.920;2022-07-21T07:58:33;34.40;98.70
3602;DHT22;1815;50.950;6.920;2022-07-21T08:00:59;34.40;98.10
3602;DHT22;1815;50.950;6.920;2022-07-21T08:03:25;34.20;97.20
3602;DHT22;1815;50.950;6.920;2022-07-21T08:05:54;33.90;96.70
3602;DHT22;1815;50.950;6.920;2022-07-21T08:08:21;33.70;96.50
3602;DHT22;1815;50.950;6.920;2022-07-21T08:10:47;33.40;96.00
3602;DHT22;1815;50.950;6.920;2022-07-21T08:13:15;33.00;95.30
3602;DHT22;1815;50.950;6.920;2022-07-21T08:15:41;32.60;95.70
3602;DHT22;1815;50.950;6.920;2022-07-21T08:18:08;32.40;96.20
3602;DHT22;1815;50.950;6.920;2022-07-21T08:20:34;32.30;96.60
3602;DHT22;1815;50.950;6.920;2022-07-21T08:23:01;32.10;96.40
3602;DHT22;1815;50.950;6.920;2022-07-21T08:25:27;31.90;96.40
3602;DHT22;1815;50.950;6.920;2022-07-21T08:27:53;31.70;96.40
3602;DHT22;1815;50.950;6.920;2022-07-21T08:30:19;31.40;96.70
3602;DHT22;1815;50.950;6.920;2022-07-21T08:32:45;31.20;97.00
3602;DHT22;1815;50.950;6.920;2022-07-21T08:35:11;31.00;97.40
3602;DHT22;1815;50.950;6.920;2022-07-21T08:37:38;31.10;98.20
3602;DHT22;1815;50.950;6.920;2022-07-21T08:40:09;31.20;98.30
3602;DHT22;1815;50.950;6.920;2022-07-21T08:42:35;31.20;97.90
3602;DHT22;1815;50.950;6.920;2022-07-21T08:45:02;31.20;97.60
3602;DHT22;1815;50.950;6.920;2022-07-21T08:47:28;31.10;97.40
3602;DHT22;1815;50.950;6.920;2022-07-21T08:49:55;31.00;97.10
3602;DHT22;1815;50.950;6.920;2022-07-21T08:52:22;30.80;96.60
3602;DHT22;1815;50.950;6.920;2022-07-21T08:54:47;30.70;96.40
3602;DHT22;1815;50.950;6.920;2022-07-21T08:57:13;30.50;96.00
3602;DHT22;1815;50.950;6.920;2022-07-21T08:59:39;30.20;95.70
3602;DHT22;1815;50.950;6.920;2022-07-21T09:02:05;30.00;95.60
3602;DHT22;1815;50.950;6.920;2022-07-21T09:04:33;29.80;95.70
3602;DHT22;1815;50.950;6.920;2022-07-21T09:07:05;29.70;96.70
3602;DHT22;1815;50.950;6.920;2022-07-21T09:09:34;30.20;98.00
3602;DHT22;1815;50.950;6.920;2022-07-21T09:12:02;31.10;99.20
3602;DHT22;1815;50.950;6.920;2022-07-21T09:14:32;32.00;99.70
3602;DHT22;1815;50.950;6.920;2022-07-21T09:17:00;32.50;97.40
3602;DHT22;1815;50.950;6.920;2022-07-21T09:19:29;32.80;96.00
3602;DHT22;1815;50.950;6.920;2022-07-21T09:22:01;32.80;94.00
3602;DHT22;1815;50.950;6.920;2022-07-21T09:29:50;32.60;91.40
3602;DHT22;1815;50.950;6.920;2022-07-21T09:32:20;32.50;90.40
3602;DHT22;1815;50.950;6.920;2022-07-21T09:34:49;32.40;90.40
3602;DHT22;1815;50.950;6.920;2022-07-21T09:37:16;32.30;89.40
3602;DHT22;1815;50.950;6.920;2022-07-21T09:39:53;32.10;89.50
3602;DHT22;1815;50.950;6.920;2022-07-21T09:42:20;32.00;88.30
3602;DHT22;1815;50.950;6.920;2022-07-21T09:44:50;31.80;88.30
3602;DHT22;1815;50.950;6.920;2022-07-21T09:47:17;31.70;88.50
3602;DHT22;1815;50.950;6.920;2022-07-21T09:49:44;31.60;88.20
3602;DHT22;1815;50.950;6.920;2022-07-21T09:54:45;31.50;88.10
3602;DHT22;1815;50.950;6.920;2022-07-21T09:57:11;31.40;88.10
3602;DHT22;1815;50.950;6.920;2022-07-21T09:59:39;31.50;87.30
3602;DHT22;1815;50.950;6.920;2022-07-21T10:02:05;31.50;87.60
3602;DHT22;1815;50.950;6.920;2022-07-21T10:04:32;31.60;88.00
3602;DHT22;1815;50.950;6.920;2022-07-21T10:07:01;31.70;87.70
3602;DHT22;1815;50.950;6.920;2022-07-21T10:09:27;31.60;86.60
3602;DHT22;1815;50.950;6.920;2022-07-21T10:11:54;31.60;85.60
3602;DHT22;1815;50.950;6.920;2022-07-21T10:14:19;31.40;84.40
3602;DHT22;1815;50.950;6.920;2022-07-21T10:16:45;31.20;84.20
3602;DHT22;1815;50.950;6.920;2022-07-21T10:19:27;31.00;84.30
3602;DHT22;1815;50.950;6.920;2022-07-21T10:24:28;30.50;85.00
3602;DHT22;1815;50.950;6.920;2022-07-21T10:27:08;30.30;86.00
3602;DHT22;1815;50.950;6.920;2022-07-21T10:32:18;29.90;84.60
3602;DHT22;1815;50.950;6.920;2022-07-21T10:34:45;29.70;84.70
3602;DHT22;1815;50.950;6.920;2022-07-21T10:37:12;29.40;84.90
3602;DHT22;1815;50.950;6.920;2022-07-21T10:39:57;29.20;85.30
3602;DHT22;1815;50.950;6.920;2022-07-21T10:42:23;28.90;85.20
3602;DHT22;1815;50.950;6.920;2022-07-21T10:44:49;28.70;85.60
3602;DHT22;1815;50.950;6.920;2022-07-21T10:47:21;28.40;86.10
3602;DHT22;1815;50.950;6.920;2022-07-21T10:49:56;28.20;87.00
3602;DHT22;1815;50.950;6.920;2022-07-21T11:01:04;27.50;91.00
3602;DHT22;1815;50.950;6.920;2022-07-21T11:03:34;27.50;91.80
3602;DHT22;1815;50.950;6.920;2022-07-21T11:11:18;27.30;93.60
3602;DHT22;1815;50.950;6.920;2022-07-21T11:24:34;26.90;95.80
3602;DHT22;1815;50.950;6.920;2022-07-21T11:27:03;26.70;96.00
3602;DHT22;1815;50.950;6.920;2022-07-21T11:29:30;26.60;96.50
3602;DHT22;1815;50.950;6.920;2022-07-21T11:31:57;26.40;97.00
3602;DHT22;1815;50.950;6.920;2022-07-21T11:34:24;26.30;97.40
3602;DHT22;1815;50.950;6.920;2022-07-21T11:37:01;26.20;97.70
3602;DHT22;1815;50.950;6.920;2022-07-21T11:39:27;26.00;98.90
3602;DHT22;1815;50.950;6.920;2022-07-21T11:41:52;25.90;99.00
3602;DHT22;1815;50.950;6.920;2022-07-21T11:44:24;25.70;99.60
3602;DHT22;1815;50.950;6.920;2022-07-21T11:46:53;25.60;99.90
3602;DHT22;1815;50.950;6.920;2022-07-21T11:49:22;25.40;99.90
3602;DHT22;1815;50.950;6.920;2022-07-21T11:51:54;25.10;99.90
3602;DHT22;1815;50.950;6.920;2022-07-21T11:54:22;24.90;99.90
3602;DHT22;1815;50.950;6.920;2022-07-21T11:56:50;24.50;99.90
3602;DHT22;1815;50.950;6.920;2022-07-21T11:59:16;24.20;99.90
3602;DHT22;1815;50.950;6.920;2022-07-21T12:01:53;23.90;99.90
3602;DHT22;1815;50.950;6.920;2022-07-21T12:04:27;23.60;99.90
3602;DHT22;1815;50.950;6.920;2022-07-21T12:06:54;23.30;99.90
3602;DHT22;1815;50.950;6.920;2022-07-21T12:09:20;23.10;99.90
3602;DHT22;1815;50.950;6.920;2022-07-21T12:11:46;22.90;99.90
3602;DHT22;1815;50.950;6.920;2022-07-21T12:14:12;22.70;99.90
3602;DHT22;1815;50.950;6.920;2022-07-21T12:16:53;22.50;99.90
3602;DHT22;1815;50.950;6.920;2022-07-21T12:19:20;22.40;99.90
3602;DHT22;1815;50.950;6.920;2022-07-21T12:21:51;22.30;99.90
3602;DHT22;1815;50.950;6.920;2022-07-21T12:24:20;22.20;99.90
3602;DHT22;1815;50.950;6.920;2022-07-21T12:26:49;22.10;99.90
3602;DHT22;1815;50.950;6.920;2022-07-21T12:29:28;22.10;99.90
3602;DHT22;1815;50.950;6.920;2022-07-21T12:31:55;22.00;99.90
3602;DHT22;1815;50.950;6.920;2022-07-21T12:34:21;22.00;99.90
3602;DHT22;1815;50.950;6.920;2022-07-21T12:36:49;21.90;99.90
3602;DHT22;1815;50.950;6.920;2022-07-21T12:39:26;21.90;99.90
3602;DHT22;1815;50.950;6.920;2022-07-21T12:42:27;21.90;99.90
3602;DHT22;1815;50.950;6.920;2022-07-21T12:44:54;21.90;99.90
3602;DHT22;1815;50.950;6.920;2022-07-21T12:47:22;21.90;99.90
3602;DHT22;1815;50.950;6.920;2022-07-21T12:52:24;21.90;99.90
3602;DHT22;1815;50.950;6.920;2022-07-21T12:54:50;21.90;99.90
3602;DHT22;1815;50.950;6.920;2022-07-21T12:57:16;21.90;99.90
3602;DHT22;1815;50.950;6.920;2022-07-21T12:59:42;21.90;99.90
3602;DHT22;1815;50.950;6.920;2022-07-21T13:02:08;21.80;99.90
3602;DHT22;1815;50.950;6.920;2022-07-21T13:04:34;21.80;99.90
3602;DHT22;1815;50.950;6.920;2022-07-21T13:07:00;21.80;99.90
3602;DHT22;1815;50.950;6.920;2022-07-21T13:09:26;21.90;99.90
3602;DHT22;1815;50.950;6.920;2022-07-21T13:11:52;21.90;99.90
3602;DHT22;1815;50.950;6.920;2022-07-21T13:14:18;21.90;99.90
3602;DHT22;1815;50.950;6.920;2022-07-21T13:16:43;21.90;99.90
3602;DHT22;1815;50.950;6.920;2022-07-21T13:19:09;22.00;99.90
3602;DHT22;1815;50.950;6.920;2022-07-21T13:21:35;22.00;99.90
3602;DHT22;1815;50.950;6.920;2022-07-21T13:24:01;22.00;99.90
3602;DHT22;1815;50.950;6.920;2022-07-21T13:26:26;22.00;99.90
3602;DHT22;1815;50.950;6.920;2022-07-21T13:28:54;22.10;99.90
3602;DHT22;1815;50.950;6.920;2022-07-21T13:31:20;22.10;99.90
3602;DHT22;1815;50.950;6.920;2022-07-21T13:33:46;22.10;99.90
3602;DHT22;1815;50.950;6.920;2022-07-21T13:36:13;22.20;99.90
3602;DHT22;1815;50.950;6.920;2022-07-21T13:38:39;22.20;99.90
3602;DHT22;1815;50.950;6.920;2022-07-21T13:41:05;22.30;99.90
3602;DHT22;1815;50.950;6.920;2022-07-21T13:43:31;22.40;99.90
3602;DHT22;1815;50.950;6.920;2022-07-21T13:45:57;22.40;99.90
3602;DHT22;1815;50.950;6.920;2022-07-21T13:48:23;22.50;99.90
3602;DHT22;1815;50.950;6.920;2022-07-21T13:50:49;22.50;99.90
3602;DHT22;1815;50.950;6.920;2022-07-21T13:53:15;22.50;99.90
3602;DHT22;1815;50.950;6.920;2022-07-21T13:55:42;22.50;99.90
3602;DHT22;1815;50.950;6.920;2022-07-21T13:58:08;22.50;99.90
3602;DHT22;1815;50.950;6.920;2022-07-21T14:00:35;22.40;99.90
3602;DHT22;1815;50.950;6.920;2022-07-21T14:03:01;22.40;99.90
3602;DHT22;1815;50.950;6.920;2022-07-21T14:05:27;22.40;99.90
3602;DHT22;1815;50.950;6.920;2022-07-21T14:07:53;22.40;99.90
3602;DHT22;1815;50.950;6.920;2022-07-21T14:10:19;22.40;99.90
3602;DHT22;1815;50.950;6.920;2022-07-21T14:12:45;22.40;99.90
3602;DHT22;1815;50.950;6.920;2022-07-21T14:15:11;22.40;99.90
3602;DHT22;1815;50.950;6.920;2022-07-21T14:17:37;22.40;99.90
3602;DHT22;1815;50.950;6.920;2022-07-21T14:20:03;22.30;99.90
3602;DHT22;1815;50.950;6.920;2022-07-21T14:22:29;22.40;99.90
3602;DHT22;1815;50.950;6.920;2022-07-21T14:24:55;22.30;99.90
3602;DHT22;1815;50.950;6.920;2022-07-21T14:27:39;22.30;99.90
3602;DHT22;1815;50.950;6.920;2022-07-21T14:30:06;22.30;99.90
3602;DHT22;1815;50.950;6.920;2022-07-21T14:32:32;22.30;99.90
3602;DHT22;1815;50.950;6.920;2022-07-21T14:34:58;22.30;99.90
3602;DHT22;1815;50.950;6.920;2022-07-21T14:37:25;22.30;99.90
3602;DHT22;1815;50.950;6.920;2022-07-21T14:39:51;22.30;99.90
3602;DHT22;1815;50.950;6.920;2022-07-21T14:42:17;22.30;99.90
3602;DHT22;1815;50.950;6.920;2022-07-21T14:44:44;22.30;99.90
3602;DHT22;1815;50.950;6.920;2022-07-21T14:47:11;22.30;99.90
3602;DHT22;1815;50.950;6.920;2022-07-21T14:49:37;22.30;99.90
3602;DHT22;1815;50.950;6.920;2022-07-21T14:52:04;22.30;99.90
3602;DHT22;1815;50.950;6.920;2022-07-21T14:54:31;22.30;99.90
3602;DHT22;1815;50.950;6.920;2022-07-21T14:56:57;22.30;99.90
3602;DHT22;1815;50.950;6.920;2022-07-21T14:59:22;22.30;99.90
3602;DHT22;1815;50.950;6.920;2022-07-21T15:01:48;22.20;99.90
3602;DHT22;1815;50.950;6.920;2022-07-21T15:04:14;22.10;99.90
3602;DHT22;1815;50.950;6.920;2022-07-21T15:06:41;22.10;99.90
3602;DHT22;1815;50.950;6.920;2022-07-21T15:09:09;22.10;99.90
3602;DHT22;1815;50.950;6.920;2022-07-21T15:11:35;22.10;99.90
3602;DHT22;1815;50.950;6.920;2022-07-21T15:14:01;22.10;99.90
3602;DHT22;1815;50.950;6.920;2022-07-21T15:16:27;22.10;99.90
3602;DHT22;1815;50.950;6.920;2022-07-21T15:18:53;22.10;99.90
3602;DHT22;1815;50.950;6.920;2022-07-21T15:21:19;22.20;99.90
3602;DHT22;1815;50.950;6.920;2022-07-21T15:23:45;22.30;99.90
3602;DHT22;1815;50.950;6.920;2022-07-21T15:26:11;22.50;99.90
3602;DHT22;1815;50.950;6.920;2022-07-21T15:28:37;22.70;99.90
3602;DHT22;1815;50.950;6.920;2022-07-21T15:31:06;22.80;99.90
3602;DHT22;1815;50.950;6.920;2022-07-21T15:33:33;23.00;99.90
3602;DHT22;1815;50.950;6.920;2022-07-21T15:35:59;23.10;99.90
3602;DHT22;1815;50.950;6.920;2022-07-21T15:38:28;23.10;99.90
3602;DHT22;1815;50.950;6.920;2022-07-21T15:40:54;23.10;99.90
3602;DHT22;1815;50.950;6.920;2022-07-21T15:43:20;23.10;99.90
3602;DHT22;1815;50.950;6.920;2022-07-21T15:45:47;23.10;99.90
3602;DHT22;1815;50.950;6.920;2022-07-21T15:48:13;23.10;99.90
3602;DHT22;1815;50.950;6.920;2022-07-21T15:50:39;23.10;99.90
3602;DHT22;1815;50.950;6.920;2022-07-21T15:53:06;23.10;99.90
3602;DHT22;1815;50.950;6.920;2022-07-21T15:55:32;23.10;99.90
3602;DHT22;1815;50.950;6.920;2022-07-21T15:57:58;23.10;99.90
3602;DHT22;1815;50.950;6.920;2022-07-21T16:00:25;23.10;99.90
3602;DHT22;1815;50.950;6.920;2022-07-21T16:02:52;23.10;99.90
3602;DHT22;1815;50.950;6.920;2022-07-21T16:05:21;23.10;99.90
3602;DHT22;1815;50.950;6.920;2022-07-21T16:07:48;23.20;99.90
3602;DHT22;1815;50.950;6.920;2022-07-21T16:10:16;23.20;99.90
3602;DHT22;1815;50.950;6.920;2022-07-21T16:12:45;23.20;99.90
3602;DHT22;1815;50.950;6.920;2022-07-21T16:15:12;23.10;99.90
3602;DHT22;1815;50.950;6.920;2022-07-21T16:17:38;23.10;99.90
3602;DHT22;1815;50.950;6.920;2022-07-21T16:20:06;23.10;99.90
3602;DHT22;1815;50.950;6.920;2022-07-21T16:22:33;23.10;99.90
3602;DHT22;1815;50.950;6.920;2022-07-21T16:24:59;23.10;99.90
3602;DHT22;1815;50.950;6.920;2022-07-21T16:27:25;23.00;99.90
3602;DHT22;1815;50.950;6.920;2022-07-21T16:29:51;23.00;99.90
3602;DHT22;1815;50.950;6.920;2022-07-21T16:32:17;23.00;99.90
3602;DHT22;1815;50.950;6.920;2022-07-21T16:34:43;23.00;99.90
3602;DHT22;1815;50.950;6.920;2022-07-21T16:37:10;23.00;99.90
3602;DHT22;1815;50.950;6.920;2022-07-21T16:39:39;22.90;99.90
3602;DHT22;1815;50.950;6.920;2022-07-21T16:42:05;22.90;99.90